Time;durP1;ratioP1;P1;durP2;ratioP2;P2;SDS_P1;SDS_P2;PMS_P1;PMS_P2;Temp;Humidity;BMP_temperature;BMP_pressure;BME280_temperature;BME280_humidity;BME280_pressure;Samples;Min_cycle;Max_cycle;Signal;HPM_P1;HPM_P2
2024/01/22 00:02:24;;;;;;;1.50;1.30;;;;;7.60;100578.00;;;;4887787;29;20607;-71
2024/01/22 00:05:11;;;;;;;3.07;1.60;;;;;7.50;100558.00;;;;4900002;29;20376;-71
2024/01/22 00:07:57;;;;;;;1.10;1.10;;;;;7.60;100567.00;;;;4899298;29;20247;-72
2024/01/22 00:10:45;;;;;;;1.30;1.20;;;;;7.60;100552.00;;;;4915497;29;20262;-70
2024/01/22 00:13:32;;;;;;;4.97;1.80;;;;;7.60;100562.00;;;;4882999;29;20289;-71
2024/01/22 00:16:18;;;;;;;1.63;1.53;;;;;7.70;100537.00;;;;4885150;29;20386;-70
2024/01/22 00:19:04;;;;;;;2.37;1.60;;;;;7.70;100554.00;;;;4839984;29;20839;-70
2024/01/22 00:21:51;;;;;;;1.50;1.40;;;;;7.60;100534.00;;;;4881675;29;20285;-70
2024/01/22 00:24:37;;;;;;;2.37;1.63;;;;;7.70;100534.00;;;;4826675;29;20228;-72
2024/01/22 00:27:25;;;;;;;3.10;1.67;;;;;7.70;100534.00;;;;4875213;29;20282;-70
2024/01/22 00:30:11;;;;;;;1.87;1.50;;;;;7.80;100543.00;;;;4869567;29;20243;-72
2024/01/22 00:32:59;;;;;;;1.60;1.50;;;;;7.80;100520.00;;;;4920475;29;20310;-68
2024/01/22 00:35:45;;;;;;;1.60;1.50;;;;;7.90;100503.00;;;;4899949;29;20368;-71
2024/01/22 00:38:31;;;;;;;1.53;1.40;;;;;7.80;100485.00;;;;4892792;29;20219;-71
2024/01/22 00:41:17;;;;;;;3.10;1.67;;;;;7.80;100467.00;;;;4920867;29;20459;-70
2024/01/22 00:44:05;;;;;;;1.77;1.40;;;;;7.90;100472.00;;;;4885295;28;20264;-70
2024/01/22 00:46:52;;;;;;;5.73;1.50;;;;;7.90;100468.00;;;;4911752;29;20573;-70
2024/01/22 00:49:38;;;;;;;2.10;1.30;;;;;7.90;100454.00;;;;4925480;28;20248;-71
2024/01/22 00:52:24;;;;;;;1.57;1.40;;;;;7.90;100438.00;;;;4890790;29;20243;-70
2024/01/22 00:55:11;;;;;;;3.00;1.67;;;;;7.90;100420.00;;;;4857319;29;20236;-71
2024/01/22 00:57:57;;;;;;;1.63;1.43;;;;;8.00;100419.00;;;;4910528;29;20223;-70
2024/01/22 01:00:45;;;;;;;1.50;1.40;;;;;8.00;100426.00;;;;4893670;29;20265;-71
2024/01/22 01:03:31;;;;;;;4.77;1.40;;;;;8.00;100418.00;;;;4920558;29;20243;-70
2024/01/22 01:06:18;;;;;;;1.67;1.50;;;;;8.00;100413.00;;;;4942522;29;20216;-70
2024/01/22 01:09:05;;;;;;;1.50;1.40;;;;;8.00;100402.00;;;;4934247;29;20315;-71
2024/01/22 01:11:51;;;;;;;1.83;1.60;;;;;8.00;100394.00;;;;4937432;29;20238;-68
2024/01/22 01:14:37;;;;;;;1.77;1.60;;;;;8.00;100395.00;;;;4939844;29;20245;-71
2024/01/22 01:17:25;;;;;;;1.97;1.43;;;;;8.00;100385.00;;;;4920075;28;20219;-71
2024/01/22 01:20:12;;;;;;;4.57;1.60;;;;;8.10;100349.00;;;;4913598;29;20360;-72
2024/01/22 01:22:58;;;;;;;2.23;1.40;;;;;8.10;100353.00;;;;4909991;29;20215;-70
2024/01/22 01:25:44;;;;;;;3.50;1.33;;;;;8.00;100340.00;;;;4908667;29;20264;-71
2024/01/22 01:28:31;;;;;;;4.03;1.33;;;;;8.10;100336.00;;;;4890864;29;20726;-72
2024/01/22 01:31:17;;;;;;;4.00;2.17;;;;;8.10;100325.00;;;;4887365;29;20327;-70
2024/01/22 01:34:05;;;;;;;2.73;1.70;;;;;8.10;100305.00;;;;4887090;28;20906;-71
2024/01/22 01:36:51;;;;;;;1.87;1.40;;;;;8.10;100307.00;;;;4875382;29;20295;-72
2024/01/22 01:39:37;;;;;;;4.57;1.60;;;;;8.10;100335.00;;;;4907113;29;20222;-69
2024/01/22 01:42:24;;;;;;;1.90;1.30;;;;;8.20;100351.00;;;;4893760;29;21084;-71
2024/01/22 01:45:13;;;;;;;4.97;1.80;;;;;8.20;100333.00;;;;4920283;29;20236;-71
2024/01/22 01:48:00;;;;;;;2.37;1.33;;;;;8.20;100340.00;;;;4891593;29;20256;-68
2024/01/22 01:50:48;;;;;;;1.20;1.10;;;;;8.20;100342.00;;;;4890848;29;20319;-72
2024/01/22 01:53:34;;;;;;;1.70;1.30;;;;;8.20;100342.00;;;;4869536;28;20812;-70
2024/01/22 01:56:21;;;;;;;1.67;1.43;;;;;8.20;100364.00;;;;4904684;29;20935;-71
2024/01/22 01:59:07;;;;;;;1.30;1.20;;;;;8.20;100337.00;;;;4878125;29;20712;-72
2024/01/22 02:01:53;;;;;;;4.50;1.20;;;;;8.20;100326.00;;;;4904626;29;20435;-73
2024/01/22 02:04:40;;;;;;;1.20;1.10;;;;;8.30;100314.00;;;;4884155;28;20732;-71
2024/01/22 02:07:27;;;;;;;2.17;1.50;;;;;8.30;100336.00;;;;4894916;28;20487;-70
2024/01/22 02:10:14;;;;;;;2.20;1.40;;;;;8.30;100343.00;;;;4869990;29;20320;-72
2024/01/22 02:13:04;;;;;;;1.93;1.60;;;;;8.40;100335.00;;;;4907071;29;20266;-70
2024/01/22 02:15:50;;;;;;;1.87;1.23;;;;;8.40;100346.00;;;;4892791;29;20368;-71
2024/01/22 02:18:37;;;;;;;1.67;1.50;;;;;8.40;100309.00;;;;4886168;29;20223;-71
2024/01/22 02:21:23;;;;;;;1.40;1.30;;;;;8.40;100303.00;;;;4914077;29;20221;-71
2024/01/22 02:24:10;;;;;;;1.30;1.20;;;;;8.50;100294.00;;;;4934071;29;20241;-71
2024/01/22 02:26:57;;;;;;;2.83;1.37;;;;;8.50;100285.00;;;;4909478;29;20720;-71
2024/01/22 02:29:44;;;;;;;2.90;1.50;;;;;8.60;100287.00;;;;4889073;28;20311;-69
2024/01/22 02:32:31;;;;;;;1.30;1.20;;;;;8.60;100274.00;;;;4903058;29;20789;-71
2024/01/22 02:35:18;;;;;;;1.40;1.20;;;;;8.70;100258.00;;;;4880311;29;20241;-69
2024/01/22 02:38:04;;;;;;;1.77;1.23;;;;;8.70;100235.00;;;;4885712;29;20221;-70
2024/01/22 02:40:52;;;;;;;2.23;1.57;;;;;8.60;100229.00;;;;4849131;29;20233;-70
2024/01/22 02:43:38;;;;;;;1.30;1.20;;;;;8.60;100231.00;;;;4880319;29;20250;-71
2024/01/22 02:46:25;;;;;;;1.53;1.30;;;;;8.70;100196.00;;;;4880832;28;20900;-71
2024/01/22 02:49:12;;;;;;;1.50;1.40;;;;;8.70;100184.00;;;;4911952;28;20569;-71
2024/01/22 02:51:58;;;;;;;2.70;1.50;;;;;8.70;100196.00;;;;4884310;29;20240;-71
2024/01/22 02:54:45;;;;;;;2.13;1.40;;;;;8.70;100208.00;;;;4862173;29;20285;-71
2024/01/22 02:57:32;;;;;;;2.10;1.17;;;;;8.80;100213.00;;;;4886249;29;20308;-70
2024/01/22 03:00:19;;;;;;;1.10;1.10;;;;;8.80;100195.00;;;;4890223;29;20228;-70
2024/01/22 03:03:05;;;;;;;2.43;1.37;;;;;8.80;100197.00;;;;4880458;28;20237;-70
2024/01/22 03:05:52;;;;;;;2.03;1.30;;;;;8.80;100198.00;;;;4917811;29;20211;-70
2024/01/22 03:08:39;;;;;;;1.43;1.33;;;;;8.80;100201.00;;;;4864345;29;20297;-70
2024/01/22 03:11:25;;;;;;;2.77;1.37;;;;;8.80;100198.00;;;;4911786;29;20337;-70
2024/01/22 03:14:13;;;;;;;1.20;1.10;;;;;8.90;100185.00;;;;4915224;29;20241;-70
2024/01/22 03:17:00;;;;;;;3.17;1.50;;;;;8.90;100191.00;;;;4919027;28;20236;-70
2024/01/22 03:19:46;;;;;;;1.30;1.17;;;;;8.90;100197.00;;;;4887194;29;20296;-70
2024/01/22 03:22:32;;;;;;;1.17;1.07;;;;;9.00;100193.00;;;;4915596;29;20356;-70
2024/01/22 03:25:19;;;;;;;6.90;1.10;;;;;9.00;100208.00;;;;4946953;28;20372;-71
2024/01/22 03:28:06;;;;;;;1.23;1.20;;;;;9.00;100199.00;;;;4860598;28;20224;-69
2024/01/22 03:30:54;;;;;;;1.10;1.00;;;;;9.00;100174.00;;;;4904699;29;20367;-70
2024/01/22 03:33:40;;;;;;;1.63;1.30;;;;;9.00;100164.00;;;;4881434;29;20248;-70
2024/01/22 03:36:26;;;;;;;2.20;1.03;;;;;9.10;100146.00;;;;4912684;29;20225;-70
2024/01/22 03:39:13;;;;;;;2.00;1.30;;;;;9.00;100161.00;;;;4887955;29;20233;-71
2024/01/22 03:41:59;;;;;;;2.80;1.47;;;;;9.00;100151.00;;;;4879068;29;20299;-69
2024/01/22 03:44:46;;;;;;;1.20;1.10;;;;;8.90;100147.00;;;;4919712;28;20246;-71
2024/01/22 03:47:34;;;;;;;1.57;1.47;;;;;8.80;100141.00;;;;4892750;28;20760;-71
2024/01/22 03:50:20;;;;;;;1.30;1.20;;;;;8.70;100146.00;;;;4908768;29;20742;-70
2024/01/22 03:53:07;;;;;;;1.43;1.27;;;;;8.60;100126.00;;;;4883503;29;20389;-71
2024/01/22 03:55:53;;;;;;;1.00;1.00;;;;;8.60;100130.00;;;;4896850;29;20792;-70
2024/01/22 03:58:39;;;;;;;2.77;1.10;;;;;8.60;100127.00;;;;4885117;29;20332;-71
2024/01/22 04:01:26;;;;;;;4.67;1.27;;;;;8.50;100123.00;;;;4886357;29;20614;-71
2024/01/22 04:04:14;;;;;;;1.57;1.27;;;;;8.50;100122.00;;;;4912559;29;20252;-71
2024/01/22 04:07:00;;;;;;;3.67;1.00;;;;;8.50;100110.00;;;;4914439;29;21002;-72
2024/01/22 04:09:47;;;;;;;1.10;1.00;;;;;8.60;100092.00;;;;4904975;29;20248;-72
2024/01/22 04:12:33;;;;;;;1.60;1.50;;;;;8.60;100091.00;;;;4888067;29;20244;-71
2024/01/22 04:15:20;;;;;;;2.47;1.20;;;;;8.60;100096.00;;;;4910047;29;20299;-71
2024/01/22 04:18:06;;;;;;;1.40;1.30;;;;;8.50;100098.00;;;;4885548;29;20216;-71
2024/01/22 04:20:54;;;;;;;1.50;1.40;;;;;8.60;100095.00;;;;4891034;29;20228;-71
2024/01/22 04:23:41;;;;;;;2.80;1.50;;;;;8.60;100094.00;;;;4883287;29;20228;-71
2024/01/22 04:26:27;;;;;;;1.47;1.17;;;;;8.50;100086.00;;;;4910539;29;20228;-71
2024/01/22 04:29:14;;;;;;;1.37;1.13;;;;;8.50;100082.00;;;;4886197;29;20378;-72
2024/01/22 04:32:01;;;;;;;1.40;1.30;;;;;8.50;100084.00;;;;4867720;29;20293;-71
2024/01/22 04:34:47;;;;;;;5.47;1.40;;;;;8.50;100067.00;;;;4900360;29;20233;-69
2024/01/22 04:37:35;;;;;;;2.77;1.37;;;;;8.50;100073.00;;;;4857371;29;20217;-70
2024/01/22 04:40:21;;;;;;;1.30;1.20;;;;;8.60;100088.00;;;;4862257;29;20224;-71
2024/01/22 04:43:07;;;;;;;1.40;1.30;;;;;8.60;100061.00;;;;4883021;29;20240;-71
2024/01/22 04:45:54;;;;;;;1.30;1.20;;;;;8.60;100066.00;;;;4883746;29;20349;-70
2024/01/22 04:48:40;;;;;;;1.70;1.47;;;;;8.60;100059.00;;;;4883278;29;20228;-70
2024/01/22 04:51:27;;;;;;;1.87;1.67;;;;;8.60;100059.00;;;;4904798;29;20232;-71
2024/01/22 04:54:15;;;;;;;1.23;1.13;;;;;8.60;100050.00;;;;4909503;29;20248;-72
2024/01/22 04:57:01;;;;;;;1.83;1.23;;;;;8.60;100042.00;;;;4862846;29;20317;-72
2024/01/22 04:59:47;;;;;;;1.13;1.07;;;;;8.60;100054.00;;;;4899735;29;20225;-69
2024/01/22 05:02:34;;;;;;;1.73;1.40;;;;;8.60;100048.00;;;;4914104;29;20384;-72
2024/01/22 05:05:20;;;;;;;2.90;1.40;;;;;8.60;100038.00;;;;4911353;29;20233;-72
2024/01/22 05:08:06;;;;;;;1.20;1.10;;;;;8.70;100040.00;;;;4912159;29;20216;-70
2024/01/22 05:10:54;;;;;;;2.53;1.40;;;;;8.70;100041.00;;;;4941106;29;20726;-71
2024/01/22 05:13:48;;;;;;;1.27;1.07;;;;;8.70;100028.00;;;;4938480;28;20630;-71
2024/01/22 05:16:34;;;;;;;1.43;1.17;;;;;8.70;100024.00;;;;4941801;29;20232;-71
2024/01/22 05:19:21;;;;;;;2.20;1.20;;;;;8.70;100023.00;;;;4931143;29;20216;-72
2024/01/22 05:22:07;;;;;;;1.37;1.20;;;;;8.70;100017.00;;;;4903776;29;20585;-72
2024/01/22 05:24:54;;;;;;;1.50;1.40;;;;;8.70;100014.00;;;;4934677;29;20240;-72
2024/01/22 05:27:45;;;;;;;2.57;1.47;;;;;8.80;100015.00;;;;4912817;29;20223;-72
2024/01/22 05:30:32;;;;;;;1.33;1.20;;;;;8.80;100009.00;;;;4898734;29;20239;-71
2024/01/22 05:33:18;;;;;;;1.50;1.40;;;;;8.80;100005.00;;;;4880747;29;20228;-72
2024/01/22 05:36:05;;;;;;;2.80;1.40;;;;;8.80;100020.00;;;;4888313;29;20571;-71
2024/01/22 05:38:51;;;;;;;1.57;1.40;;;;;8.90;100006.00;;;;4895969;29;20317;-72
2024/01/22 05:41:37;;;;;;;2.57;1.40;;;;;8.80;100009.00;;;;4847541;29;20214;-71
2024/01/22 05:44:25;;;;;;;2.40;1.50;;;;;8.90;99992.00;;;;4887901;28;20298;-72
2024/01/22 05:47:12;;;;;;;2.53;1.20;;;;;8.90;99972.00;;;;4899293;29;20376;-72
2024/01/22 05:49:58;;;;;;;1.30;1.20;;;;;9.00;99982.00;;;;4909163;29;20225;-69
2024/01/22 05:52:45;;;;;;;1.40;1.30;;;;;9.10;99986.00;;;;4899456;29;20229;-72
2024/01/22 05:55:31;;;;;;;1.80;1.53;;;;;9.00;99971.00;;;;4880034;29;20233;-71
2024/01/22 05:58:17;;;;;;;1.43;1.33;;;;;9.10;99964.00;;;;4917795;29;20947;-71
2024/01/22 06:01:05;;;;;;;5.80;1.60;;;;;9.10;99955.00;;;;4900558;29;20292;-72
2024/01/22 06:03:52;;;;;;;1.67;1.30;;;;;9.10;99953.00;;;;4879339;29;20444;-72
2024/01/22 06:06:38;;;;;;;1.37;1.27;;;;;9.10;99954.00;;;;4864701;29;20321;-72
2024/01/22 06:09:25;;;;;;;1.63;1.30;;;;;9.10;99967.00;;;;4914414;28;20243;-72
2024/01/22 06:12:11;;;;;;;1.70;1.40;;;;;9.20;99946.00;;;;4913323;28;20224;-72
2024/01/22 06:14:58;;;;;;;1.20;1.20;;;;;9.10;99959.00;;;;4914719;29;20327;-72
2024/01/22 06:17:46;;;;;;;2.40;1.20;;;;;9.10;99941.00;;;;4882785;29;20209;-71
2024/01/22 06:20:32;;;;;;;1.30;1.20;;;;;9.10;99955.00;;;;4876008;29;20240;-72
2024/01/22 06:23:21;;;;;;;4.10;1.50;;;;;9.20;99951.00;;;;4904876;28;20259;-71
2024/01/22 06:26:09;;;;;;;1.30;1.20;;;;;9.30;99951.00;;;;4922893;29;20215;-72
2024/01/22 06:28:57;;;;;;;1.50;1.40;;;;;9.40;99950.00;;;;4913552;29;20216;-72
2024/01/22 06:31:43;;;;;;;3.63;1.30;;;;;9.40;99961.00;;;;4915391;29;20730;-72
2024/01/22 06:34:31;;;;;;;3.70;2.00;;;;;9.50;99929.00;;;;4918281;28;20287;-72
2024/01/22 06:37:17;;;;;;;1.30;1.20;;;;;9.60;99962.00;;;;4888465;28;20227;-72
2024/01/22 06:40:05;;;;;;;1.70;1.33;;;;;9.60;99962.00;;;;4889370;28;20691;-71
2024/01/22 06:42:52;;;;;;;1.53;1.40;;;;;9.70;99959.00;;;;4911917;29;20342;-72
2024/01/22 06:45:38;;;;;;;2.07;1.80;;;;;9.80;99974.00;;;;4879785;29;20769;-71
2024/01/22 06:48:24;;;;;;;4.50;1.80;;;;;9.80;99974.00;;;;4869165;29;20298;-71
2024/01/22 06:51:13;;;;;;;1.37;1.27;;;;;9.90;99972.00;;;;4879687;29;20292;-71
2024/01/22 06:53:59;;;;;;;1.50;1.40;;;;;9.90;99978.00;;;;4858731;29;20255;-71
2024/01/22 06:56:46;;;;;;;1.57;1.43;;;;;9.80;99984.00;;;;4883254;29;20230;-71
2024/01/22 06:59:32;;;;;;;1.53;1.43;;;;;9.90;99973.00;;;;4893702;29;20221;-72
2024/01/22 07:02:18;;;;;;;1.33;1.13;;;;;9.90;99999.00;;;;4905598;29;20296;-70
2024/01/22 07:05:06;;;;;;;1.50;1.40;;;;;9.90;99984.00;;;;4873555;29;20256;-71
2024/01/22 07:07:54;;;;;;;2.47;1.67;;;;;9.90;99980.00;;;;4913709;29;20233;-72
2024/01/22 07:10:40;;;;;;;2.27;1.30;;;;;10.00;99982.00;;;;4915957;29;20224;-71
2024/01/22 07:13:28;;;;;;;1.77;1.63;;;;;10.00;99977.00;;;;4885537;28;20353;-72
2024/01/22 07:16:14;;;;;;;2.20;1.70;;;;;9.90;99989.00;;;;4908387;29;20678;-72
2024/01/22 07:19:01;;;;;;;1.83;1.40;;;;;10.00;99984.00;;;;4885408;29;20706;-73
2024/01/22 07:21:47;;;;;;;2.17;1.70;;;;;9.90;99997.00;;;;4929799;29;20714;-72
2024/01/22 07:24:35;;;;;;;1.83;1.60;;;;;10.00;99978.00;;;;4913429;29;20887;-74
2024/01/22 07:27:21;;;;;;;1.63;1.40;;;;;10.00;99977.00;;;;4908356;29;20272;-74
2024/01/22 07:30:11;;;;;;;1.50;1.40;;;;;10.10;99986.00;;;;4907558;29;20904;-72
2024/01/22 07:32:58;;;;;;;2.03;1.73;;;;;10.10;99974.00;;;;4925231;29;20236;-74
2024/01/22 07:35:44;;;;;;;4.27;1.57;;;;;10.10;99977.00;;;;4883698;29;20248;-72
2024/01/22 07:38:31;;;;;;;1.90;1.30;;;;;10.20;99979.00;;;;4883988;28;20317;-72
2024/01/22 07:41:18;;;;;;;1.30;1.20;;;;;10.20;99975.00;;;;4898825;29;20711;-71
2024/01/22 07:44:05;;;;;;;1.67;1.57;;;;;10.20;99976.00;;;;4881247;29;20696;-71
2024/01/22 07:46:51;;;;;;;3.90;1.40;;;;;10.30;99978.00;;;;4910878;29;20217;-73
2024/01/22 07:49:38;;;;;;;1.20;1.10;;;;;10.30;99991.00;;;;4894204;28;20216;-72
2024/01/22 07:52:24;;;;;;;3.07;1.80;;;;;10.30;99978.00;;;;4873759;29;20229;-70
2024/01/22 07:55:13;;;;;;;2.43;1.73;;;;;10.40;99990.00;;;;4894288;29;20288;-73
2024/01/22 07:58:00;;;;;;;2.03;1.50;;;;;10.40;99980.00;;;;4897409;29;20241;-78
2024/01/22 08:00:47;;;;;;;1.67;1.50;;;;;10.60;99998.00;;;;4875866;29;20222;-74
2024/01/22 08:03:34;;;;;;;2.23;1.70;;;;;10.60;100010.00;;;;4882100;29;20221;-72
2024/01/22 08:06:20;;;;;;;1.80;1.30;;;;;10.70;100007.00;;;;4927844;29;20213;-75
2024/01/22 08:09:07;;;;;;;2.73;1.80;;;;;10.80;100019.00;;;;4873912;29;20299;-72
2024/01/22 08:11:53;;;;;;;1.37;1.27;;;;;10.70;99994.00;;;;4870241;29;20232;-75
2024/01/22 08:14:42;;;;;;;1.43;1.33;;;;;10.80;99987.00;;;;4856543;28;20931;-75
2024/01/22 08:17:29;;;;;;;5.70;1.97;;;;;10.80;100016.00;;;;4879865;29;20269;-75
2024/01/22 08:20:16;;;;;;;3.40;1.40;;;;;10.90;100014.00;;;;4881317;29;20277;-74
2024/01/22 08:23:03;;;;;;;1.63;1.50;;;;;10.90;100025.00;;;;4863831;28;20319;-75
2024/01/22 08:25:49;;;;;;;4.23;1.50;;;;;10.80;100021.00;;;;4899482;29;20297;-76
2024/01/22 08:28:35;;;;;;;1.53;1.30;;;;;10.80;100033.00;;;;4897755;29;20581;-76
2024/01/22 08:31:23;;;;;;;1.57;1.47;;;;;10.80;100018.00;;;;4910511;29;20220;-75
2024/01/22 08:34:09;;;;;;;1.80;1.40;;;;;10.80;100028.00;;;;4849105;29;20405;-74
2024/01/22 08:36:55;;;;;;;1.40;1.30;;;;;10.90;100030.00;;;;4854845;28;20362;-74
2024/01/22 08:39:42;;;;;;;1.20;1.10;;;;;11.00;100033.00;;;;4896205;28;20252;-76
2024/01/22 08:42:28;;;;;;;1.73;1.07;;;;;11.00;100017.00;;;;4904618;28;20638;-75
2024/01/22 08:45:14;;;;;;;1.70;1.40;;;;;11.00;100014.00;;;;4888359;29;20235;-75
2024/01/22 08:48:02;;;;;;;1.77;1.30;;;;;11.00;100022.00;;;;4905351;29;20232;-70
2024/01/22 08:50:49;;;;;;;1.87;1.77;;;;;10.90;100022.00;;;;4882551;29;20354;-73
2024/01/22 08:53:36;;;;;;;1.53;1.43;;;;;10.90;100015.00;;;;4857895;29;20230;-72
2024/01/22 08:56:22;;;;;;;4.63;1.60;;;;;10.80;100015.00;;;;4878895;29;20825;-72
2024/01/22 08:59:08;;;;;;;7.47;1.70;;;;;10.80;100015.00;;;;4892786;29;20265;-73
2024/01/22 09:01:54;;;;;;;1.40;1.30;;;;;10.80;100003.00;;;;4918777;29;20244;-70
2024/01/22 09:04:42;;;;;;;2.20;1.40;;;;;10.80;100021.00;;;;4888828;29;20245;-72
2024/01/22 09:07:28;;;;;;;1.33;1.23;;;;;10.80;100024.00;;;;4909963;29;20220;-73
2024/01/22 09:10:15;;;;;;;1.23;1.10;;;;;10.70;100003.00;;;;4876845;29;20212;-71
2024/01/22 09:13:01;;;;;;;2.37;1.50;;;;;10.90;99999.00;;;;4865393;29;20281;-74
2024/01/22 09:15:48;;;;;;;2.10;1.90;;;;;10.90;100008.00;;;;4891090;29;20251;-73
2024/01/22 09:18:35;;;;;;;1.93;1.60;;;;;10.90;100021.00;;;;4898533;29;20849;-74
2024/01/22 09:21:24;;;;;;;3.43;1.80;;;;;10.80;99986.00;;;;4887622;29;20225;-74
2024/01/22 09:24:11;;;;;;;4.00;1.90;;;;;10.90;100019.00;;;;4864518;29;20229;-74
2024/01/22 09:26:59;;;;;;;2.00;1.70;;;;;10.90;100013.00;;;;4882173;29;20303;-73
2024/01/22 09:29:45;;;;;;;2.57;1.60;;;;;10.90;100026.00;;;;4899919;28;20321;-74
2024/01/22 09:32:32;;;;;;;4.40;2.00;;;;;10.80;99997.00;;;;4882111;28;20216;-74
2024/01/22 09:35:18;;;;;;;4.80;1.80;;;;;10.80;100004.00;;;;4905805;29;20240;-74
2024/01/22 09:38:06;;;;;;;4.77;1.60;;;;;10.80;100002.00;;;;4909484;29;20349;-75
2024/01/22 09:40:52;;;;;;;2.63;1.73;;;;;10.80;99996.00;;;;4899451;29;20308;-75
2024/01/22 09:43:40;;;;;;;2.47;1.73;;;;;10.90;100002.00;;;;4862105;29;20297;-71
2024/01/22 09:46:27;;;;;;;2.13;1.70;;;;;10.90;100002.00;;;;4904483;29;20228;-74
2024/01/22 09:49:14;;;;;;;2.40;1.37;;;;;10.90;99999.00;;;;4875137;29;20302;-75
2024/01/22 09:52:02;;;;;;;2.17;1.67;;;;;10.90;100002.00;;;;4910156;29;20225;-75
2024/01/22 09:54:51;;;;;;;2.43;1.40;;;;;10.90;100002.00;;;;4884915;28;20745;-73
2024/01/22 09:57:38;;;;;;;2.53;1.60;;;;;10.90;99993.00;;;;4834611;29;20793;-73
2024/01/22 10:00:26;;;;;;;2.50;1.63;;;;;10.90;100012.00;;;;4876224;29;20288;-72
2024/01/22 10:03:14;;;;;;;2.57;1.60;;;;;11.00;100001.00;;;;4882399;29;20229;-75
2024/01/22 10:06:00;;;;;;;2.30;1.50;;;;;11.10;100006.00;;;;4882957;29;20238;-75
2024/01/22 10:08:47;;;;;;;6.30;1.53;;;;;11.10;100015.00;;;;4877137;29;20362;-76
2024/01/22 10:11:35;;;;;;;3.53;1.70;;;;;11.20;100004.00;;;;4907935;29;20753;-75
2024/01/22 10:14:30;;;;;;;8.23;1.80;;;;;11.30;100027.00;;;;4824646;29;20781;-72
2024/01/22 10:17:17;;;;;;;3.20;1.47;;;;;11.40;99987.00;;;;4914562;29;20304;-74
2024/01/22 10:20:08;;;;;;;2.07;1.60;;;;;11.40;100002.00;;;;4890534;29;20353;-74
2024/01/22 10:23:00;;;;;;;1.87;1.67;;;;;11.40;99987.00;;;;4914015;29;20240;-74
2024/01/22 10:25:46;;;;;;;3.37;1.77;;;;;11.30;99985.00;;;;4903982;29;20251;-72
2024/01/22 10:28:34;;;;;;;4.70;1.87;;;;;11.20;99987.00;;;;4914036;28;20348;-75
2024/01/22 10:31:21;;;;;;;4.03;1.30;;;;;11.20;99983.00;;;;4913206;29;20359;-76
2024/01/22 10:34:07;;;;;;;2.87;1.23;;;;;11.20;99982.00;;;;4913247;29;20236;-76
2024/01/22 10:37:07;;;;;;;4.70;1.60;;;;;11.20;99977.00;;;;4874220;29;20247;-75
2024/01/22 10:40:01;;;;;;;1.73;1.23;;;;;11.30;99982.00;;;;4885277;29;20231;-75
2024/01/22 10:42:47;;;;;;;2.93;1.50;;;;;11.30;99979.00;;;;4838990;29;20411;-75
2024/01/22 10:45:36;;;;;;;3.60;1.30;;;;;11.30;99971.00;;;;4840402;29;20859;-75
2024/01/22 10:48:24;;;;;;;1.30;1.20;;;;;11.30;99961.00;;;;4902540;29;20224;-75
2024/01/22 10:51:26;;;;;;;2.07;1.10;;;;;11.30;99968.00;;;;4845641;29;20857;-74
2024/01/22 10:54:12;;;;;;;1.63;1.53;;;;;11.30;99972.00;;;;4892356;29;20327;-75
2024/01/22 10:57:03;;;;;;;1.57;1.40;;;;;11.30;99973.00;;;;4886412;29;20241;-74
2024/01/22 10:59:50;;;;;;;2.37;1.50;;;;;11.40;99972.00;;;;4914155;29;20311;-75
2024/01/22 11:02:43;;;;;;;3.30;1.47;;;;;11.40;99966.00;;;;4868550;28;20266;-74
2024/01/22 11:05:33;;;;;;;4.27;1.70;;;;;11.50;99972.00;;;;4922431;29;20732;-73
2024/01/22 11:08:20;;;;;;;4.20;1.80;;;;;11.50;99966.00;;;;4911907;29;20237;-75
2024/01/22 11:11:12;;;;;;;3.20;1.30;;;;;11.50;99973.00;;;;4894674;29;20233;-75
2024/01/22 11:14:00;;;;;;;2.53;1.30;;;;;11.50;99973.00;;;;4885247;28;20385;-75
2024/01/22 11:16:46;;;;;;;1.50;1.40;;;;;11.60;99975.00;;;;4885933;28;20378;-73
2024/01/22 11:19:34;;;;;;;4.87;1.80;;;;;11.60;99977.00;;;;4851846;28;20226;-70
2024/01/22 11:22:22;;;;;;;3.63;1.70;;;;;11.60;99967.00;;;;4908063;29;20229;-70
2024/01/22 11:25:12;;;;;;;4.50;1.50;;;;;11.60;99971.00;;;;4873729;29;20888;-69
2024/01/22 11:28:02;;;;;;;1.93;1.13;;;;;11.50;99954.00;;;;4896145;29;20227;-69
2024/01/22 11:30:49;;;;;;;3.23;1.10;;;;;11.50;99980.00;;;;4841666;29;20855;-70
2024/01/22 11:33:35;;;;;;;5.23;1.50;;;;;11.40;100018.00;;;;4923753;29;20703;-70
2024/01/22 11:36:50;;;;;;;2.70;1.10;;;;;11.10;100094.00;;;;4873696;29;20240;-69
2024/01/22 11:39:43;;;;;;;4.03;1.10;;;;;10.60;100089.00;;;;4875161;29;20241;-71
2024/01/22 11:42:31;;;;;;;2.47;1.27;;;;;10.40;100080.00;;;;4859106;28;20361;-72
2024/01/22 11:45:17;;;;;;;3.03;1.00;;;;;10.20;100084.00;;;;4897707;29;20244;-72
2024/01/22 11:48:16;;;;;;;1.03;0.90;;;;;10.10;100093.00;;;;4832228;29;20240;-72
2024/01/22 11:51:05;;;;;;;2.90;1.00;;;;;10.00;100090.00;;;;4841076;29;20242;-72
2024/01/22 11:53:56;;;;;;;2.53;1.13;;;;;9.90;100099.00;;;;4903340;29;20249;-71
2024/01/22 11:56:43;;;;;;;8.57;1.57;;;;;9.90;100110.00;;;;4877751;29;20312;-73
2024/01/22 11:59:30;;;;;;;2.47;1.33;;;;;9.80;100104.00;;;;4903184;29;20295;-72
2024/01/22 12:02:17;;;;;;;7.20;1.57;;;;;9.70;100103.00;;;;4904775;29;20590;-73
2024/01/22 12:05:06;;;;;;;3.53;1.40;;;;;9.60;100098.00;;;;4906825;29;20237;-70
2024/01/22 12:07:53;;;;;;;4.63;1.87;;;;;9.60;100104.00;;;;4896577;29;20301;-70
2024/01/22 12:10:41;;;;;;;5.20;1.43;;;;;9.60;100099.00;;;;4870020;29;20377;-70
2024/01/22 12:13:27;;;;;;;7.20;1.50;;;;;9.70;100090.00;;;;4902343;28;20288;-71
2024/01/22 12:16:15;;;;;;;1.23;1.13;;;;;9.60;100110.00;;;;4879245;29;20646;-70
2024/01/22 12:19:11;;;;;;;7.87;2.03;;;;;9.60;100121.00;;;;4908647;29;20217;-71
2024/01/22 12:21:57;;;;;;;4.10;1.20;;;;;9.60;100130.00;;;;4876346;29;20751;-69
2024/01/22 12:24:44;;;;;;;8.07;1.60;;;;;9.60;100134.00;;;;4891782;29;20228;-71
2024/01/22 12:27:32;;;;;;;8.00;1.87;;;;;9.70;100146.00;;;;4872260;28;20216;-71
2024/01/22 12:30:19;;;;;;;8.70;2.07;;;;;9.80;100144.00;;;;4913627;29;20273;-69
2024/01/22 12:33:05;;;;;;;7.30;1.70;;;;;9.80;100156.00;;;;4900010;29;20221;-71
2024/01/22 12:35:52;;;;;;;4.30;1.40;;;;;9.90;100170.00;;;;4897146;29;20712;-71
2024/01/22 12:38:49;;;;;;;7.87;1.70;;;;;9.90;100156.00;;;;4877859;29;20728;-71
2024/01/22 12:41:35;;;;;;;3.07;1.40;;;;;9.90;100172.00;;;;4841880;29;20625;-70
2024/01/22 12:44:23;;;;;;;5.23;1.30;;;;;10.00;100167.00;;;;4850786;29;20250;-71
2024/01/22 12:47:09;;;;;;;2.97;1.03;;;;;10.10;100174.00;;;;4875367;29;20855;-71
2024/01/22 12:49:56;;;;;;;3.97;1.60;;;;;10.00;100190.00;;;;4846890;28;20237;-71
2024/01/22 12:52:43;;;;;;;8.50;2.20;;;;;10.10;100180.00;;;;4900417;29;20228;-71
2024/01/22 12:55:29;;;;;;;5.33;1.40;;;;;10.00;100177.00;;;;4906481;29;20245;-68
2024/01/22 12:58:15;;;;;;;8.43;2.07;;;;;10.00;100188.00;;;;4880935;29;20265;-71
2024/01/22 13:01:03;;;;;;;9.00;1.90;;;;;10.00;100192.00;;;;4921320;29;20237;-70
2024/01/22 13:03:50;;;;;;;9.97;1.73;;;;;10.00;100200.00;;;;4870535;29;20730;-71
2024/01/22 13:06:38;;;;;;;8.67;1.93;;;;;9.90;100210.00;;;;4908965;29;20353;-71
2024/01/22 13:09:24;;;;;;;10.03;1.77;;;;;9.90;100217.00;;;;4880182;29;20224;-71
2024/01/22 13:12:10;;;;;;;8.97;1.60;;;;;10.00;100221.00;;;;4879463;28;20209;-71
2024/01/22 13:14:57;;;;;;;9.60;2.13;;;;;10.00;100223.00;;;;4900282;29;20341;-72
2024/01/22 13:17:46;;;;;;;15.83;2.00;;;;;10.00;100229.00;;;;4879583;29;20245;-74
2024/01/22 13:20:33;;;;;;;6.00;1.60;;;;;10.10;100238.00;;;;4854613;29;20241;-73
2024/01/22 13:23:19;;;;;;;4.10;1.40;;;;;10.20;100220.00;;;;4891510;29;20236;-72
2024/01/22 13:26:08;;;;;;;9.60;2.30;;;;;10.30;100221.00;;;;4890615;29;20273;-73
2024/01/22 13:28:55;;;;;;;9.53;2.07;;;;;10.40;100246.00;;;;4928841;29;20233;-72
2024/01/22 13:31:41;;;;;;;6.93;2.30;;;;;10.40;100236.00;;;;4902692;29;20580;-74
2024/01/22 13:34:29;;;;;;;5.47;1.80;;;;;10.40;100245.00;;;;4902706;29;20673;-74
2024/01/22 13:37:16;;;;;;;12.60;2.57;;;;;10.30;100243.00;;;;4928186;29;20365;-73
2024/01/22 13:40:03;;;;;;;13.43;2.90;;;;;10.30;100253.00;;;;4850037;29;20356;-72
2024/01/22 13:42:49;;;;;;;7.23;2.67;;;;;10.30;100249.00;;;;4919722;28;20259;-72
2024/01/22 13:45:36;;;;;;;9.80;2.53;;;;;10.40;100236.00;;;;4879342;29;20236;-70
2024/01/22 13:48:22;;;;;;;11.60;2.60;;;;;10.40;100232.00;;;;4884733;29;20284;-74
2024/01/22 13:51:10;;;;;;;13.37;2.63;;;;;10.70;100243.00;;;;4878019;29;20237;-71
2024/01/22 13:53:57;;;;;;;12.10;3.13;;;;;10.80;100234.00;;;;4881214;29;20313;-72
2024/01/22 13:56:43;;;;;;;8.23;2.50;;;;;10.80;100230.00;;;;4907089;29;20216;-72